Time;durP1;ratioP1;P1;durP2;ratioP2;P2;SDS_P1;SDS_P2;PMS_P1;PMS_P2;Temp;Humidity;BMP_temperature;BMP_pressure;BME280_temperature;BME280_humidity;BME280_pressure;Samples;Min_cycle;Max_cycle;Signal;HPM_P1;HPM_P2
2022/07/29 00:01:15;;;;;;;;;;;23.10;36.50;;;;;;4975255;28;19914;-85
2022/07/29 00:03:40;;;;;;;;;;;23.10;36.50;;;;;;4973433;28;19972;-84
2022/07/29 00:06:05;;;;;;;;;;;23.10;36.50;;;;;;4992764;28;19957;-84
2022/07/29 00:08:31;;;;;;;;;;;23.10;36.50;;;;;;4992703;28;19922;-85
2022/07/29 00:10:56;;;;;;;;;;;23.10;36.60;;;;;;4975963;28;19910;-84
2022/07/29 00:13:22;;;;;;;;;;;23.00;36.80;;;;;;4989376;28;19998;-83
2022/07/29 00:15:47;;;;;;;;;;;23.00;36.90;;;;;;4987170;28;19914;-83
2022/07/29 00:18:13;;;;;;;;;;;23.00;36.90;;;;;;4993857;28;19964;-84
2022/07/29 00:20:38;;;;;;;;;;;22.90;37.00;;;;;;4991703;28;19913;-84
2022/07/29 00:23:04;;;;;;;;;;;22.90;37.10;;;;;;4990368;28;19961;-85
2022/07/29 00:25:29;;;;;;;;;;;23.00;37.00;;;;;;4977627;28;19944;-85
2022/07/29 00:27:55;;;;;;;;;;;22.90;37.10;;;;;;4983539;28;20023;-85
2022/07/29 00:30:23;;;;;;;;;;;22.90;37.30;;;;;;4989991;28;19928;-85
2022/07/29 00:32:49;;;;;;;;;;;22.90;37.90;;;;;;4991607;28;19918;-82
2022/07/29 00:37:58;;;;;;;;;;;22.90;38.10;;;;;;4990551;28;20060;-82
2022/07/29 00:40:24;;;;;;;;;;;22.80;38.20;;;;;;4991518;28;20865;-83
2022/07/29 00:42:51;;;;;;;;;;;22.80;38.30;;;;;;4983494;28;19919;-83
2022/07/29 00:45:17;;;;;;;;;;;22.80;38.30;;;;;;4988536;28;19911;-83
2022/07/29 00:47:44;;;;;;;;;;;22.80;38.30;;;;;;4990976;28;19925;-82
2022/07/29 00:50:11;;;;;;;;;;;22.80;38.20;;;;;;4994977;28;19996;-83
2022/07/29 00:52:38;;;;;;;;;;;22.80;38.40;;;;;;4975053;28;20318;-83
2022/07/29 00:55:04;;;;;;;;;;;22.80;38.20;;;;;;4992215;28;20013;-83
2022/07/29 00:57:29;;;;;;;;;;;22.80;38.20;;;;;;4994852;28;19988;-83
2022/07/29 00:59:55;;;;;;;;;;;22.80;38.20;;;;;;4984122;28;19922;-83
2022/07/29 01:02:21;;;;;;;;;;;22.80;38.20;;;;;;4994563;28;19929;-83
2022/07/29 01:04:46;;;;;;;;;;;22.80;38.10;;;;;;4978790;28;19918;-84
2022/07/29 01:07:12;;;;;;;;;;;22.80;38.20;;;;;;4987695;28;19969;-83
2022/07/29 01:09:38;;;;;;;;;;;22.80;38.20;;;;;;4980663;28;19921;-83
2022/07/29 01:12:04;;;;;;;;;;;22.80;38.20;;;;;;4994704;28;19910;-83
2022/07/29 01:14:30;;;;;;;;;;;22.80;38.20;;;;;;4990019;28;19918;-83
2022/07/29 01:17:02;;;;;;;;;;;22.80;38.10;;;;;;4994590;28;19914;-83
2022/07/29 01:19:41;;;;;;;;;;;22.70;38.10;;;;;;4986823;28;19949;-83
2022/07/29 01:22:26;;;;;;;;;;;22.70;38.20;;;;;;4991499;28;20326;-83
2022/07/29 01:25:00;;;;;;;;;;;22.70;38.20;;;;;;4989022;28;19964;-83
2022/07/29 01:27:36;;;;;;;;;;;22.70;38.20;;;;;;4977366;28;19987;-83
2022/07/29 01:30:02;;;;;;;;;;;22.70;38.30;;;;;;4971152;28;19918;-83
2022/07/29 01:32:29;;;;;;;;;;;22.70;38.40;;;;;;4991796;28;19924;-83
2022/07/29 01:35:12;;;;;;;;;;;22.70;38.50;;;;;;4977327;28;19921;-83
2022/07/29 01:37:41;;;;;;;;;;;22.60;38.60;;;;;;5008988;28;19922;-83
2022/07/29 01:40:11;;;;;;;;;;;22.60;38.60;;;;;;4996468;28;19921;-83
2022/07/29 01:42:41;;;;;;;;;;;22.60;38.80;;;;;;4974698;28;20446;-83
2022/07/29 01:45:26;;;;;;;;;;;22.60;39.00;;;;;;4960544;28;20397;-82
2022/07/29 01:48:12;;;;;;;;;;;22.60;39.10;;;;;;4975329;28;19945;-83
2022/07/29 01:50:57;;;;;;;;;;;22.50;39.50;;;;;;4959224;28;19964;-83
2022/07/29 01:53:25;;;;;;;;;;;22.50;39.70;;;;;;4981237;28;19922;-83
2022/07/29 01:55:51;;;;;;;;;;;22.50;39.60;;;;;;4996790;28;19910;-83
2022/07/29 01:58:18;;;;;;;;;;;22.50;39.50;;;;;;4978408;28;19918;-83
2022/07/29 02:00:44;;;;;;;;;;;22.50;39.40;;;;;;4995705;28;19914;-83
2022/07/29 02:03:11;;;;;;;;;;;22.60;39.30;;;;;;4992260;28;20276;-83
2022/07/29 02:05:38;;;;;;;;;;;22.50;39.20;;;;;;4994982;28;19913;-83
2022/07/29 02:08:04;;;;;;;;;;;22.60;39.30;;;;;;4969209;28;20298;-84
2022/07/29 02:10:31;;;;;;;;;;;22.60;39.30;;;;;;4976999;28;20797;-83
2022/07/29 02:12:57;;;;;;;;;;;22.60;39.40;;;;;;4986569;28;20271;-84
2022/07/29 02:15:24;;;;;;;;;;;22.50;39.50;;;;;;4992456;28;19930;-82
2022/07/29 02:17:55;;;;;;;;;;;22.60;39.60;;;;;;4994933;28;19969;-83
2022/07/29 02:20:22;;;;;;;;;;;22.50;39.70;;;;;;4987100;28;19914;-83
2022/07/29 02:22:49;;;;;;;;;;;22.50;39.70;;;;;;4988737;28;20005;-83
2022/07/29 02:25:18;;;;;;;;;;;22.50;39.70;;;;;;4982734;28;19922;-84
2022/07/29 02:27:44;;;;;;;;;;;22.50;39.60;;;;;;4978694;28;20254;-84
2022/07/29 02:30:11;;;;;;;;;;;22.50;39.50;;;;;;4988985;28;19918;-84
2022/07/29 02:32:37;;;;;;;;;;;22.50;39.50;;;;;;4976783;28;20003;-83
2022/07/29 02:35:03;;;;;;;;;;;22.50;39.50;;;;;;4992030;28;19918;-83
2022/07/29 02:37:29;;;;;;;;;;;22.50;39.30;;;;;;4994469;28;20258;-83
2022/07/29 02:39:55;;;;;;;;;;;22.50;39.30;;;;;;4995529;28;19910;-84
2022/07/29 02:42:21;;;;;;;;;;;22.60;39.20;;;;;;4990844;28;19988;-83
2022/07/29 02:44:50;;;;;;;;;;;22.60;39.10;;;;;;4972140;28;19921;-83
2022/07/29 02:47:38;;;;;;;;;;;22.70;39.00;;;;;;4995157;28;20024;-83
2022/07/29 02:50:12;;;;;;;;;;;22.60;39.00;;;;;;4970922;28;20397;-83
2022/07/29 02:52:40;;;;;;;;;;;22.60;39.10;;;;;;4977982;28;19924;-84
2022/07/29 02:55:10;;;;;;;;;;;22.60;39.40;;;;;;4994816;28;19909;-82
2022/07/29 02:58:02;;;;;;;;;;;22.50;39.50;;;;;;4995677;28;20362;-83
2022/07/29 03:00:28;;;;;;;;;;;22.40;39.40;;;;;;4990421;28;19910;-83
2022/07/29 03:02:56;;;;;;;;;;;22.40;39.40;;;;;;4987074;28;19963;-83
2022/07/29 03:05:22;;;;;;;;;;;22.30;39.30;;;;;;4990397;28;19956;-83
2022/07/29 03:07:50;;;;;;;;;;;22.30;39.40;;;;;;4993345;28;19922;-83
2022/07/29 03:10:16;;;;;;;;;;;22.30;39.50;;;;;;4994670;28;20068;-83
2022/07/29 03:12:42;;;;;;;;;;;22.30;39.50;;;;;;4988007;28;19974;-84
2022/07/29 03:15:08;;;;;;;;;;;22.30;39.50;;;;;;4982513;28;20389;-83
2022/07/29 03:17:34;;;;;;;;;;;22.20;39.60;;;;;;4994772;28;19918;-83
2022/07/29 03:20:00;;;;;;;;;;;22.20;39.60;;;;;;4994784;28;19910;-83
2022/07/29 03:22:26;;;;;;;;;;;22.10;39.60;;;;;;4993697;28;19922;-83
2022/07/29 03:24:51;;;;;;;;;;;22.10;39.70;;;;;;4989282;28;19914;-83
2022/07/29 03:27:16;;;;;;;;;;;22.10;39.70;;;;;;4973589;28;20318;-83
2022/07/29 03:29:42;;;;;;;;;;;22.10;39.70;;;;;;4958143;28;19914;-83
2022/07/29 03:32:08;;;;;;;;;;;22.10;39.70;;;;;;4984301;28;19918;-83
2022/07/29 03:34:33;;;;;;;;;;;22.10;39.60;;;;;;4991023;28;19914;-83
2022/07/29 03:36:58;;;;;;;;;;;22.20;39.70;;;;;;4994749;28;19918;-83
2022/07/29 03:39:25;;;;;;;;;;;22.10;39.80;;;;;;4994358;28;19910;-82
2022/07/29 03:41:53;;;;;;;;;;;22.10;39.80;;;;;;4994422;28;20408;-84
2022/07/29 03:44:19;;;;;;;;;;;22.10;39.90;;;;;;4993842;28;20278;-82
2022/07/29 03:46:45;;;;;;;;;;;22.10;40.00;;;;;;4994037;28;19918;-83
2022/07/29 03:49:11;;;;;;;;;;;22.10;40.00;;;;;;4992695;28;19914;-83
2022/07/29 03:51:37;;;;;;;;;;;22.00;40.00;;;;;;4993943;28;19918;-84
2022/07/29 03:54:03;;;;;;;;;;;22.00;39.90;;;;;;4993662;28;19917;-84
2022/07/29 03:56:29;;;;;;;;;;;22.00;40.00;;;;;;4975445;28;19919;-84
2022/07/29 03:58:55;;;;;;;;;;;22.00;40.10;;;;;;4973344;28;19914;-83
2022/07/29 04:01:21;;;;;;;;;;;21.90;40.20;;;;;;4973780;28;19933;-83
2022/07/29 04:03:46;;;;;;;;;;;22.00;40.20;;;;;;4991171;28;20370;-83
2022/07/29 04:06:12;;;;;;;;;;;22.00;40.20;;;;;;4979361;28;19955;-83
2022/07/29 04:08:37;;;;;;;;;;;22.00;40.20;;;;;;4981517;28;19969;-83
2022/07/29 04:11:03;;;;;;;;;;;21.90;40.20;;;;;;4990837;28;19945;-84
2022/07/29 04:13:29;;;;;;;;;;;21.80;40.40;;;;;;4993554;28;19925;-83
2022/07/29 04:15:54;;;;;;;;;;;21.80;40.50;;;;;;4988930;28;20351;-82
2022/07/29 04:18:20;;;;;;;;;;;21.80;40.60;;;;;;5004139;28;19917;-83
2022/07/29 04:20:45;;;;;;;;;;;21.80;40.70;;;;;;5003506;28;19917;-83
2022/07/29 04:23:11;;;;;;;;;;;21.70;40.80;;;;;;4999013;28;19918;-84
2022/07/29 04:25:37;;;;;;;;;;;21.70;40.80;;;;;;4987095;28;19914;-83
2022/07/29 04:28:03;;;;;;;;;;;21.70;40.90;;;;;;4978760;28;19926;-83
2022/07/29 04:30:30;;;;;;;;;;;21.60;40.90;;;;;;4978661;28;20005;-83
2022/07/29 04:32:55;;;;;;;;;;;21.60;41.00;;;;;;4961406;28;19925;-84
2022/07/29 04:35:21;;;;;;;;;;;21.50;41.10;;;;;;4978710;28;19914;-83
2022/07/29 04:37:46;;;;;;;;;;;21.50;41.30;;;;;;5000033;28;19921;-83
2022/07/29 04:40:12;;;;;;;;;;;21.40;41.40;;;;;;4999819;28;19920;-83
2022/07/29 04:42:46;;;;;;;;;;;21.50;41.40;;;;;;5017751;28;19928;-83
2022/07/29 04:45:12;;;;;;;;;;;21.50;41.60;;;;;;4971676;28;19913;-83
2022/07/29 04:47:37;;;;;;;;;;;21.40;41.70;;;;;;5003936;28;19922;-83
2022/07/29 04:50:03;;;;;;;;;;;21.50;41.60;;;;;;4995800;28;19917;-84
2022/07/29 04:52:28;;;;;;;;;;;21.50;41.60;;;;;;4997909;28;19918;-84
2022/07/29 04:54:54;;;;;;;;;;;21.60;41.70;;;;;;4997783;28;19910;-85
2022/07/29 04:57:19;;;;;;;;;;;21.60;41.70;;;;;;4967428;28;20382;-84
2022/07/29 04:59:44;;;;;;;;;;;21.70;41.70;;;;;;4978053;28;19917;-84
2022/07/29 05:02:10;;;;;;;;;;;21.70;41.80;;;;;;4978080;28;19918;-84
2022/07/29 05:04:35;;;;;;;;;;;21.80;41.80;;;;;;4980353;28;20271;-84
2022/07/29 05:07:01;;;;;;;;;;;21.80;41.70;;;;;;4977458;28;19929;-84
2022/07/29 05:09:26;;;;;;;;;;;21.90;41.70;;;;;;4960084;28;19977;-84
2022/07/29 05:11:52;;;;;;;;;;;22.00;41.80;;;;;;4977607;28;19922;-84
2022/07/29 05:14:17;;;;;;;;;;;22.10;41.90;;;;;;4989365;28;20378;-84
2022/07/29 05:16:43;;;;;;;;;;;22.30;42.00;;;;;;4980150;28;20313;-84
2022/07/29 05:19:08;;;;;;;;;;;22.40;42.10;;;;;;4977845;28;19918;-85
2022/07/29 05:21:34;;;;;;;;;;;22.60;42.00;;;;;;4960467;28;19925;-86
2022/07/29 05:23:59;;;;;;;;;;;22.80;41.80;;;;;;4982269;28;19910;-85
2022/07/29 05:26:25;;;;;;;;;;;23.00;41.70;;;;;;4982038;28;19922;-82
2022/07/29 05:28:50;;;;;;;;;;;23.20;41.60;;;;;;4977307;28;19918;-84
2022/07/29 05:31:16;;;;;;;;;;;23.30;41.40;;;;;;4963117;28;19910;-84
2022/07/29 05:33:41;;;;;;;;;;;23.50;41.20;;;;;;4979346;28;20413;-85
2022/07/29 05:36:07;;;;;;;;;;;23.70;41.00;;;;;;4996482;28;19914;-86
2022/07/29 05:38:33;;;;;;;;;;;23.80;40.90;;;;;;4997204;28;19918;-84
2022/07/29 05:41:02;;;;;;;;;;;23.90;40.80;;;;;;4991131;28;19914;-84
2022/07/29 05:43:27;;;;;;;;;;;24.00;40.60;;;;;;4986945;28;19918;-84
2022/07/29 05:45:53;;;;;;;;;;;24.10;40.50;;;;;;4998139;28;19918;-86
2022/07/29 05:48:19;;;;;;;;;;;24.20;40.50;;;;;;4978060;28;19922;-85
2022/07/29 05:50:44;;;;;;;;;;;24.30;40.40;;;;;;4984857;28;19924;-86
2022/07/29 05:53:10;;;;;;;;;;;24.40;40.20;;;;;;5015415;28;19918;-86
2022/07/29 05:55:35;;;;;;;;;;;24.50;40.10;;;;;;4997581;28;20345;-86
2022/07/29 05:58:00;;;;;;;;;;;24.60;40.10;;;;;;4980178;28;20374;-85
2022/07/29 06:00:26;;;;;;;;;;;24.60;40.10;;;;;;4977513;28;19921;-85
2022/07/29 06:02:51;;;;;;;;;;;24.70;40.00;;;;;;4995337;28;20476;-86
2022/07/29 06:05:17;;;;;;;;;;;24.80;39.80;;;;;;4993592;28;19914;-86
2022/07/29 06:07:42;;;;;;;;;;;25.00;39.70;;;;;;4995055;28;19926;-83
2022/07/29 06:10:09;;;;;;;;;;;25.10;39.60;;;;;;4994433;28;19913;-84
2022/07/29 06:12:34;;;;;;;;;;;25.20;39.30;;;;;;4993553;28;19929;-84
2022/07/29 06:14:59;;;;;;;;;;;25.30;39.30;;;;;;4993190;28;19918;-84
2022/07/29 06:17:25;;;;;;;;;;;25.30;39.10;;;;;;4993479;28;19922;-86
2022/07/29 06:19:50;;;;;;;;;;;25.50;38.90;;;;;;4993874;28;20065;-83
2022/07/29 06:22:17;;;;;;;;;;;25.60;38.70;;;;;;4977419;28;19940;-84
2022/07/29 06:24:43;;;;;;;;;;;25.80;38.60;;;;;;4993475;28;19968;-85
2022/07/29 06:27:12;;;;;;;;;;;25.90;38.60;;;;;;4993493;28;19914;-86
2022/07/29 06:29:37;;;;;;;;;;;26.20;38.40;;;;;;4995370;28;19918;-85
2022/07/29 06:32:03;;;;;;;;;;;26.40;37.80;;;;;;4994960;28;19914;-86
2022/07/29 06:34:29;;;;;;;;;;;26.70;37.30;;;;;;4984997;28;19921;-86
2022/07/29 06:36:54;;;;;;;;;;;26.80;36.80;;;;;;4976330;28;20314;-85
2022/07/29 06:39:19;;;;;;;;;;;27.10;36.60;;;;;;4975340;28;19922;-85
2022/07/29 06:41:49;;;;;;;;;;;27.30;36.60;;;;;;4975427;28;19914;-84
2022/07/29 06:44:14;;;;;;;;;;;27.50;36.30;;;;;;4974922;28;20374;-85
2022/07/29 06:46:40;;;;;;;;;;;27.80;36.10;;;;;;4973571;28;19968;-85
2022/07/29 06:49:05;;;;;;;;;;;28.00;35.70;;;;;;4973302;28;19918;-85
2022/07/29 06:51:31;;;;;;;;;;;28.20;35.00;;;;;;4968564;28;20367;-85
2022/07/29 06:53:57;;;;;;;;;;;28.30;34.40;;;;;;5014661;28;20641;-84
2022/07/29 06:56:22;;;;;;;;;;;28.30;34.10;;;;;;5003164;28;19972;-85
2022/07/29 06:58:49;;;;;;;;;;;28.50;33.80;;;;;;4994949;28;19910;-85
2022/07/29 07:01:16;;;;;;;;;;;28.60;33.40;;;;;;4996832;28;19909;-84
2022/07/29 07:03:41;;;;;;;;;;;28.70;33.10;;;;;;4996150;28;19909;-84
2022/07/29 07:06:07;;;;;;;;;;;28.70;33.00;;;;;;4994081;28;20293;-82
2022/07/29 07:08:33;;;;;;;;;;;28.90;33.10;;;;;;4975223;28;20771;-83
2022/07/29 07:10:58;;;;;;;;;;;29.20;33.10;;;;;;4992851;28;20271;-84
2022/07/29 07:13:24;;;;;;;;;;;29.30;32.80;;;;;;4993544;28;19976;-84
2022/07/29 07:15:50;;;;;;;;;;;29.50;32.90;;;;;;4975206;28;20485;-84
2022/07/29 07:18:16;;;;;;;;;;;29.70;32.40;;;;;;4974447;28;20024;-84
2022/07/29 07:20:41;;;;;;;;;;;29.80;32.10;;;;;;4992143;28;19964;-84
2022/07/29 07:23:07;;;;;;;;;;;29.90;31.50;;;;;;4974757;28;19973;-85
2022/07/29 07:25:32;;;;;;;;;;;29.90;31.40;;;;;;4974807;28;19925;-85
2022/07/29 07:27:58;;;;;;;;;;;30.00;31.30;;;;;;4990867;28;19980;-85
2022/07/29 07:30:23;;;;;;;;;;;30.10;31.10;;;;;;4974908;28;19913;-82
2022/07/29 07:32:49;;;;;;;;;;;30.20;31.00;;;;;;4992877;28;19968;-84
2022/07/29 07:35:14;;;;;;;;;;;30.30;30.90;;;;;;4958850;28;19910;-83
2022/07/29 07:37:42;;;;;;;;;;;30.50;31.20;;;;;;4972992;28;19922;-84
2022/07/29 07:40:09;;;;;;;;;;;31.00;31.40;;;;;;4972621;28;19910;-85
2022/07/29 07:42:34;;;;;;;;;;;31.40;30.90;;;;;;4972538;28;19922;-84
2022/07/29 07:45:01;;;;;;;;;;;31.80;29.80;;;;;;4972969;28;19917;-83
2022/07/29 07:47:33;;;;;;;;;;;32.00;29.10;;;;;;4971931;28;19985;-85
2022/07/29 07:49:59;;;;;;;;;;;32.30;28.80;;;;;;4973096;28;19968;-84
2022/07/29 07:52:25;;;;;;;;;;;32.60;28.80;;;;;;4973654;28;19922;-84
2022/07/29 07:54:51;;;;;;;;;;;32.80;28.40;;;;;;5006858;28;20023;-84
2022/07/29 07:57:17;;;;;;;;;;;33.00;28.20;;;;;;5013567;28;19917;-84
2022/07/29 07:59:44;;;;;;;;;;;33.20;27.70;;;;;;4994880;28;19988;-84
2022/07/29 08:02:10;;;;;;;;;;;33.30;27.50;;;;;;4995038;28;19917;-84
2022/07/29 08:04:36;;;;;;;;;;;33.30;27.50;;;;;;5012969;28;19913;-85
2022/07/29 08:07:01;;;;;;;;;;;33.40;27.00;;;;;;4930316;28;1833180;-85
2022/07/29 08:09:28;;;;;;;;;;;33.40;27.00;;;;;;4995526;28;20465;-84
2022/07/29 08:11:55;;;;;;;;;;;33.60;26.70;;;;;;4996151;28;19918;-84
2022/07/29 08:14:21;;;;;;;;;;;33.80;26.90;;;;;;5013772;28;19913;-85
2022/07/29 08:16:46;;;;;;;;;;;34.20;26.70;;;;;;4995528;28;19920;-85
2022/07/29 08:19:12;;;;;;;;;;;34.30;26.60;;;;;;4978961;28;19984;-84
2022/07/29 08:21:37;;;;;;;;;;;34.50;26.50;;;;;;4994381;28;19920;-85
2022/07/29 08:26:50;;;;;;;;;;;34.50;25.70;;;;;;5012629;28;20285;-84
2022/07/29 08:29:16;;;;;;;;;;;34.50;25.80;;;;;;5013131;28;19948;-85
2022/07/29 08:31:43;;;;;;;;;;;34.50;25.40;;;;;;5011541;28;19910;-85
2022/07/29 08:34:08;;;;;;;;;;;34.40;25.90;;;;;;4987702;28;19913;-83
2022/07/29 08:36:34;;;;;;;;;;;34.60;26.20;;;;;;4992677;28;20322;-85
2022/07/29 08:39:03;;;;;;;;;;;35.10;26.20;;;;;;4993331;28;20649;-84
2022/07/29 08:41:29;;;;;;;;;;;35.70;26.10;;;;;;4994152;28;19917;-84
2022/07/29 08:43:54;;;;;;;;;;;36.30;25.30;;;;;;5010282;28;20266;-84
2022/07/29 08:49:55;;;;;;;;;;;37.80;23.30;;;;;;4952900;29;20000;-84
2022/07/29 08:52:24;;;;;;;;;;;38.30;22.70;;;;;;4915927;29;20713;-82
2022/07/29 08:54:51;;;;;;;;;;;38.40;21.80;;;;;;4973368;28;19925;-82
2022/07/29 08:57:18;;;;;;;;;;;38.30;21.60;;;;;;4994143;28;19971;-84
2022/07/29 08:59:45;;;;;;;;;;;38.30;21.40;;;;;;4992170;28;19957;-85
2022/07/29 09:02:15;;;;;;;;;;;38.30;21.30;;;;;;4993202;28;19917;-85
2022/07/29 09:04:41;;;;;;;;;;;38.20;21.10;;;;;;4996327;28;20016;-85
2022/07/29 09:07:07;;;;;;;;;;;38.00;20.50;;;;;;4997067;28;19956;-84
2022/07/29 09:09:33;;;;;;;;;;;37.80;20.90;;;;;;4997728;28;20273;-84
2022/07/29 09:11:59;;;;;;;;;;;37.90;20.70;;;;;;4979740;28;19920;-84
2022/07/29 09:14:25;;;;;;;;;;;38.10;19.90;;;;;;4980167;28;19922;-84
2022/07/29 09:16:54;;;;;;;;;;;38.00;19.80;;;;;;4997738;28;20421;-84
2022/07/29 09:19:24;;;;;;;;;;;37.80;19.50;;;;;;4980301;28;19942;-83
2022/07/29 09:21:59;;;;;;;;;;;37.70;19.70;;;;;;4980732;28;19956;-83
2022/07/29 09:24:25;;;;;;;;;;;37.70;19.50;;;;;;4998869;28;19986;-85
2022/07/29 09:26:51;;;;;;;;;;;37.80;19.70;;;;;;4980607;28;19928;-85
2022/07/29 09:29:17;;;;;;;;;;;38.10;19.80;;;;;;4983550;28;20001;-83
2022/07/29 09:31:44;;;;;;;;;;;38.30;19.80;;;;;;4997436;28;19921;-84
2022/07/29 09:34:10;;;;;;;;;;;38.50;19.70;;;;;;4991034;28;19910;-84
2022/07/29 09:36:40;;;;;;;;;;;39.00;19.00;;;;;;4961241;28;19949;-84
2022/07/29 09:39:05;;;;;;;;;;;39.30;18.70;;;;;;4958614;28;19968;-84
2022/07/29 09:41:43;;;;;;;;;;;39.70;18.40;;;;;;4957821;28;20012;-84
2022/07/29 09:44:09;;;;;;;;;;;40.00;17.90;;;;;;4974812;28;19965;-85
2022/07/29 09:46:35;;;;;;;;;;;40.30;18.10;;;;;;4986661;28;20502;-85
2022/07/29 09:49:10;;;;;;;;;;;40.50;17.60;;;;;;4996235;28;19925;-84
2022/07/29 09:51:36;;;;;;;;;;;40.70;17.30;;;;;;4996578;28;19925;-84
2022/07/29 09:54:20;;;;;;;;;;;40.80;17.40;;;;;;4996327;28;19918;-85
2022/07/29 09:56:46;;;;;;;;;;;40.90;16.90;;;;;;4998781;28;19921;-84
2022/07/29 09:59:11;;;;;;;;;;;40.80;16.80;;;;;;4996322;28;19965;-86
2022/07/29 10:01:37;;;;;;;;;;;40.80;16.90;;;;;;4996585;28;19921;-85
2022/07/29 10:04:02;;;;;;;;;;;40.70;17.10;;;;;;4978315;28;20547;-86
2022/07/29 10:06:28;;;;;;;;;;;40.60;17.00;;;;;;4995635;28;20429;-86
2022/07/29 10:08:54;;;;;;;;;;;40.30;17.30;;;;;;4996040;28;20008;-84
2022/07/29 10:11:20;;;;;;;;;;;40.30;17.60;;;;;;4996446;28;20286;-84
2022/07/29 10:13:46;;;;;;;;;;;40.40;17.60;;;;;;4995335;28;19997;-84
2022/07/29 10:16:13;;;;;;;;;;;40.20;17.30;;;;;;4995108;28;20343;-82
2022/07/29 10:18:39;;;;;;;;;;;39.80;17.30;;;;;;4994774;28;19932;-83
2022/07/29 10:21:04;;;;;;;;;;;39.50;17.50;;;;;;4996662;28;20063;-84
2022/07/29 10:23:30;;;;;;;;;;;39.30;18.00;;;;;;4996144;28;20362;-83
2022/07/29 10:25:55;;;;;;;;;;;39.20;18.00;;;;;;4994633;28;19918;-84
2022/07/29 10:28:21;;;;;;;;;;;39.10;17.90;;;;;;4995922;28;19918;-84
2022/07/29 10:30:48;;;;;;;;;;;39.10;18.10;;;;;;4996057;28;20389;-86
2022/07/29 10:33:17;;;;;;;;;;;39.10;18.20;;;;;;4995487;28;19910;-84
2022/07/29 10:35:49;;;;;;;;;;;39.20;18.10;;;;;;4978486;28;19941;-84
2022/07/29 10:38:17;;;;;;;;;;;39.30;17.80;;;;;;4996421;28;19964;-85
2022/07/29 10:43:40;;;;;;;;;;;39.50;17.10;;;;;;4996363;28;19917;-85
2022/07/29 10:46:06;;;;;;;;;;;39.70;17.20;;;;;;4996453;28;19913;-85
2022/07/29 10:48:32;;;;;;;;;;;39.80;17.20;;;;;;4995769;28;19925;-85
2022/07/29 10:50:58;;;;;;;;;;;39.90;17.20;;;;;;4995576;28;19968;-85
2022/07/29 10:53:24;;;;;;;;;;;39.80;17.10;;;;;;4993776;28;20278;-84
2022/07/29 10:55:52;;;;;;;;;;;39.70;16.90;;;;;;4993235;28;19924;-85
2022/07/29 10:58:17;;;;;;;;;;;39.50;16.90;;;;;;4993568;28;20008;-85
2022/07/29 11:00:43;;;;;;;;;;;39.40;17.30;;;;;;4975613;28;20013;-84
2022/07/29 11:03:09;;;;;;;;;;;39.30;17.20;;;;;;4975533;28;19918;-84
2022/07/29 11:05:53;;;;;;;;;;;39.10;17.30;;;;;;4993402;28;20264;-85
2022/07/29 11:08:21;;;;;;;;;;;39.10;17.50;;;;;;4995349;28;20024;-84
2022/07/29 11:10:50;;;;;;;;;;;39.10;17.50;;;;;;4995447;28;20350;-84
2022/07/29 11:13:35;;;;;;;;;;;39.20;17.30;;;;;;4977324;28;19918;-85
2022/07/29 11:16:00;;;;;;;;;;;39.10;17.30;;;;;;4977245;28;20584;-84
2022/07/29 11:18:26;;;;;;;;;;;38.80;17.60;;;;;;4994857;28;20016;-83
2022/07/29 11:20:53;;;;;;;;;;;39.00;17.70;;;;;;4995360;28;19910;-84
2022/07/29 11:23:36;;;;;;;;;;;39.40;17.70;;;;;;4984371;28;19918;-83
2022/07/29 11:26:19;;;;;;;;;;;40.00;17.40;;;;;;4981230;28;19917;-85
2022/07/29 11:28:54;;;;;;;;;;;40.20;17.30;;;;;;4977690;28;20358;-84
2022/07/29 11:31:42;;;;;;;;;;;40.70;16.90;;;;;;4976970;28;19920;-84
2022/07/29 11:34:25;;;;;;;;;;;41.20;16.50;;;;;;4976565;28;20091;-84
2022/07/29 11:37:06;;;;;;;;;;;41.70;16.30;;;;;;4977669;28;19993;-84
2022/07/29 11:39:32;;;;;;;;;;;41.80;15.90;;;;;;4976892;28;19929;-84
2022/07/29 11:42:21;;;;;;;;;;;41.60;15.90;;;;;;4993167;28;19925;-85
2022/07/29 11:44:54;;;;;;;;;;;41.50;16.10;;;;;;4995022;28;19914;-84
2022/07/29 11:47:20;;;;;;;;;;;41.80;16.10;;;;;;4995726;28;20326;-83
2022/07/29 11:49:45;;;;;;;;;;;41.80;16.10;;;;;;4994450;28;19965;-84
2022/07/29 11:52:11;;;;;;;;;;;41.60;16.30;;;;;;4992056;28;20388;-84
2022/07/29 11:54:39;;;;;;;;;;;41.30;16.40;;;;;;4993012;28;19922;-84
2022/07/29 11:57:06;;;;;;;;;;;41.10;16.70;;;;;;4975491;28;19909;-84
2022/07/29 11:59:38;;;;;;;;;;;40.70;16.90;;;;;;4993805;28;19928;-85
2022/07/29 12:02:03;;;;;;;;;;;40.30;17.00;;;;;;4993789;28;19918;-85
2022/07/29 12:04:29;;;;;;;;;;;40.00;17.40;;;;;;4992632;28;19941;-83
2022/07/29 12:06:56;;;;;;;;;;;39.90;17.40;;;;;;4992585;28;20381;-85
2022/07/29 12:09:23;;;;;;;;;;;40.10;17.30;;;;;;4992905;28;20020;-84
2022/07/29 12:11:49;;;;;;;;;;;40.80;17.30;;;;;;4974468;28;20294;-84
2022/07/29 12:14:31;;;;;;;;;;;41.60;16.70;;;;;;4975010;28;19918;-84
2022/07/29 12:16:56;;;;;;;;;;;41.90;16.50;;;;;;4974800;28;20429;-84
2022/07/29 12:19:22;;;;;;;;;;;42.20;16.10;;;;;;4992349;28;19917;-84
2022/07/29 12:21:48;;;;;;;;;;;42.20;15.80;;;;;;4992238;28;19918;-84
2022/07/29 12:24:14;;;;;;;;;;;42.20;15.70;;;;;;4974170;28;19976;-84
2022/07/29 12:26:52;;;;;;;;;;;41.90;15.70;;;;;;4990667;28;19941;-84
2022/07/29 12:29:18;;;;;;;;;;;41.30;16.00;;;;;;4992299;28;19969;-83
2022/07/29 12:31:44;;;;;;;;;;;40.80;16.30;;;;;;4996908;28;19917;-84
2022/07/29 12:34:14;;;;;;;;;;;40.70;16.20;;;;;;4996090;28;19922;-84
2022/07/29 12:36:41;;;;;;;;;;;40.30;16.20;;;;;;4972668;28;19968;-84
2022/07/29 12:39:06;;;;;;;;;;;39.80;16.70;;;;;;4974700;28;19914;-84
2022/07/29 12:41:32;;;;;;;;;;;39.50;17.10;;;;;;4976131;28;19921;-84
2022/07/29 12:43:57;;;;;;;;;;;39.40;17.30;;;;;;4976380;28;19925;-85
2022/07/29 12:46:23;;;;;;;;;;;39.20;17.50;;;;;;4974484;28;19984;-84
2022/07/29 12:48:54;;;;;;;;;;;38.70;17.90;;;;;;4976180;28;19922;-84
2022/07/29 12:51:28;;;;;;;;;;;38.30;18.40;;;;;;4974942;28;19976;-85
2022/07/29 12:54:03;;;;;;;;;;;38.10;18.80;;;;;;4974397;28;19957;-84
2022/07/29 12:56:28;;;;;;;;;;;37.80;18.90;;;;;;4958331;28;19941;-83
2022/07/29 12:58:54;;;;;;;;;;;37.40;19.30;;;;;;4975672;28;19918;-83
2022/07/29 13:01:20;;;;;;;;;;;37.20;19.50;;;;;;4974381;28;19918;-84
2022/07/29 13:03:48;;;;;;;;;;;37.10;19.70;;;;;;4974127;28;19918;-84
2022/07/29 13:06:33;;;;;;;;;;;37.00;19.90;;;;;;4974231;28;19948;-84
2022/07/29 13:09:05;;;;;;;;;;;36.90;20.20;;;;;;4957930;28;19936;-85
2022/07/29 13:11:36;;;;;;;;;;;37.10;20.10;;;;;;4972821;28;19913;-84
2022/07/29 13:14:02;;;;;;;;;;;37.10;20.00;;;;;;4985926;28;19921;-84
2022/07/29 13:16:27;;;;;;;;;;;37.00;20.10;;;;;;4995061;28;20392;-84
2022/07/29 13:19:22;;;;;;;;;;;36.80;20.30;;;;;;4997085;28;19925;-83
2022/07/29 13:21:48;;;;;;;;;;;36.60;20.60;;;;;;4973139;28;20377;-83
2022/07/29 13:24:13;;;;;;;;;;;36.50;20.80;;;;;;4996583;28;19918;-83
2022/07/29 13:26:41;;;;;;;;;;;36.30;21.00;;;;;;4995577;28;19949;-83
2022/07/29 13:29:07;;;;;;;;;;;36.30;21.20;;;;;;4997576;28;19922;-83
2022/07/29 13:31:32;;;;;;;;;;;36.30;21.20;;;;;;4979518;28;20349;-83
2022/07/29 13:34:01;;;;;;;;;;;36.40;21.10;;;;;;4989714;28;19918;-83
2022/07/29 13:36:26;;;;;;;;;;;36.70;20.80;;;;;;4960929;28;19921;-83
2022/07/29 13:38:52;;;;;;;;;;;36.70;20.90;;;;;;4977508;28;20387;-84
2022/07/29 13:41:22;;;;;;;;;;;36.70;20.90;;;;;;4978658;28;19911;-84
2022/07/29 13:43:48;;;;;;;;;;;36.50;21.00;;;;;;4976019;28;19919;-83
2022/07/29 13:46:13;;;;;;;;;;;36.30;21.00;;;;;;4960757;28;20429;-85
2022/07/29 13:48:38;;;;;;;;;;;36.10;21.20;;;;;;4959678;28;20028;-84
2022/07/29 13:51:05;;;;;;;;;;;35.90;21.40;;;;;;4977326;28;19917;-83
2022/07/29 13:53:31;;;;;;;;;;;35.80;21.60;;;;;;4977036;28;19918;-84
2022/07/29 13:55:56;;;;;;;;;;;35.60;21.80;;;;;;4959575;28;19917;-84
2022/07/29 13:58:22;;;;;;;;;;;35.50;22.00;;;;;;4959610;28;19910;-84
2022/07/29 14:00:48;;;;;;;;;;;35.30;22.20;;;;;;4959227;28;20255;-84
2022/07/29 14:03:13;;;;;;;;;;;35.20;22.50;;;;;;4975480;28;19973;-83
2022/07/29 14:05:39;;;;;;;;;;;35.10;22.80;;;;;;4974809;28;19910;-83
2022/07/29 14:08:04;;;;;;;;;;;35.00;22.90;;;;;;4975014;28;20442;-83
2022/07/29 14:10:30;;;;;;;;;;;34.90;23.10;;;;;;4956774;28;20386;-83
2022/07/29 14:12:55;;;;;;;;;;;34.80;23.30;;;;;;4956676;28;19945;-83
2022/07/29 14:15:20;;;;;;;;;;;34.70;23.60;;;;;;4974671;28;20383;-83
2022/07/29 14:17:46;;;;;;;;;;;34.40;23.70;;;;;;4974365;28;19914;-83
2022/07/29 14:20:11;;;;;;;;;;;34.30;23.80;;;;;;4956765;28;19930;-83
2022/07/29 14:22:37;;;;;;;;;;;34.30;23.80;;;;;;4974282;28;19914;-83
2022/07/29 14:25:03;;;;;;;;;;;34.20;23.90;;;;;;4956841;28;20756;-83
2022/07/29 14:27:28;;;;;;;;;;;34.30;23.80;;;;;;4956857;28;20385;-84
2022/07/29 14:29:53;;;;;;;;;;;34.30;23.80;;;;;;4974366;28;20032;-83